sensor_id;sensor_type;location;lat;lon;timestamp;pressure;altitude;pressure_sealevel;temperature;humidity
18900;BME280;9582;52.018;6.306;2023-01-30T00:02:02;101566.56;;;5.34;100.00
18900;BME280;9582;52.018;6.306;2023-01-30T00:04:39;101563.97;;;5.36;100.00
18900;BME280;9582;52.018;6.306;2023-01-30T00:07:17;101569.97;;;5.39;100.00
18900;BME280;9582;52.018;6.306;2023-01-30T00:09:52;101560.44;;;5.41;100.00
18900;BME280;9582;52.018;6.306;2023-01-30T00:12:23;101567.28;;;5.45;100.00
18900;BME280;9582;52.018;6.306;2023-01-30T00:14:52;101557.75;;;5.50;100.00
18900;BME280;9582;52.018;6.306;2023-01-30T00:17:24;101554.22;;;5.54;100.00
18900;BME280;9582;52.018;6.306;2023-01-30T00:19:52;101555.06;;;5.56;100.00
18900;BME280;9582;52.018;6.306;2023-01-30T00:22:27;101546.38;;;5.60;100.00
18900;BME280;9582;52.018;6.306;2023-01-30T00:24:59;101553.22;;;5.66;100.00
18900;BME280;9582;52.018;6.306;2023-01-30T00:27:29;101537.63;;;5.67;100.00
18900;BME280;9582;52.018;6.306;2023-01-30T00:29:56;101531.59;;;5.67;100.00
18900;BME280;9582;52.018;6.306;2023-01-30T00:32:23;101530.69;;;5.69;100.00
18900;BME280;9582;52.018;6.306;2023-01-30T00:34:51;101518.47;;;5.76;100.00
18900;BME280;9582;52.018;6.306;2023-01-30T00:37:20;101516.72;;;5.78;100.00
18900;BME280;9582;52.018;6.306;2023-01-30T00:39:50;101510.63;;;5.80;100.00
18900;BME280;9582;52.018;6.306;2023-01-30T00:42:21;101506.31;;;5.79;100.00
18900;BME280;9582;52.018;6.306;2023-01-30T00:45:08;101514.94;;;5.81;100.00
18900;BME280;9582;52.018;6.306;2023-01-30T00:47:53;101508.88;;;5.84;100.00
18900;BME280;9582;52.018;6.306;2023-01-30T00:50:22;101508.81;;;5.87;100.00
18900;BME280;9582;52.018;6.306;2023-01-30T00:52:56;101507.94;;;5.90;100.00
18900;BME280;9582;52.018;6.306;2023-01-30T00:55:34;101499.22;;;5.94;100.00
18900;BME280;9582;52.018;6.306;2023-01-30T00:58:00;101482.75;;;5.96;100.00
18900;BME280;9582;52.018;6.306;2023-01-30T01:00:49;101491.38;;;5.97;100.00
18900;BME280;9582;52.018;6.306;2023-01-30T01:03:20;101482.66;;;6.02;100.00
18900;BME280;9582;52.018;6.306;2023-01-30T01:05:47;101485.25;;;6.04;100.00
18900;BME280;9582;52.018;6.306;2023-01-30T01:08:15;101475.69;;;6.06;100.00
18900;BME280;9582;52.018;6.306;2023-01-30T01:10:47;101477.31;;;6.11;100.00
18900;BME280;9582;52.018;6.306;2023-01-30T01:13:15;101474.63;;;6.16;100.00
18900;BME280;9582;52.018;6.306;2023-01-30T01:15:45;101462.50;;;6.18;100.00
18900;BME280;9582;52.018;6.306;2023-01-30T01:18:15;101468.47;;;6.23;100.00
18900;BME280;9582;52.018;6.306;2023-01-30T01:20:41;101466.63;;;6.29;100.00
18900;BME280;9582;52.018;6.306;2023-01-30T01:23:09;101454.44;;;6.34;100.00
18900;BME280;9582;52.018;6.306;2023-01-30T01:25:44;101448.22;;;6.42;100.00
18900;BME280;9582;52.018;6.306;2023-01-30T01:28:11;101448.16;;;6.46;100.00
18900;BME280;9582;52.018;6.306;2023-01-30T01:30:47;101441.16;;;6.51;100.00
18900;BME280;9582;52.018;6.306;2023-01-30T01:33:18;101432.44;;;6.54;100.00
18900;BME280;9582;52.018;6.306;2023-01-30T01:35:44;101434.06;;;6.59;100.00
18900;BME280;9582;52.018;6.306;2023-01-30T01:38:15;101416.63;;;6.66;100.00
18900;BME280;9582;52.018;6.306;2023-01-30T01:40:44;101413.97;;;6.69;100.00
18900;BME280;9582;52.018;6.306;2023-01-30T01:43:38;101415.66;;;6.71;100.00
18900;BME280;9582;52.018;6.306;2023-01-30T01:46:16;101406.06;;;6.73;100.00
18900;BME280;9582;52.018;6.306;2023-01-30T01:48:53;101400.81;;;6.76;100.00
18900;BME280;9582;52.018;6.306;2023-01-30T01:51:32;101401.69;;;6.75;100.00
18900;BME280;9582;52.018;6.306;2023-01-30T01:54:02;101392.97;;;6.79;100.00
18900;BME280;9582;52.018;6.306;2023-01-30T01:56:33;101383.50;;;6.75;100.00
18900;BME280;9582;52.018;6.306;2023-01-30T01:59:04;101380.78;;;6.81;100.00
18900;BME280;9582;52.018;6.306;2023-01-30T02:01:34;101385.91;;;6.84;100.00
18900;BME280;9582;52.018;6.306;2023-01-30T02:04:06;101378.13;;;6.84;100.00
18900;BME280;9582;52.018;6.306;2023-01-30T02:06:40;101358.13;;;6.86;100.00
18900;BME280;9582;52.018;6.306;2023-01-30T02:09:10;101369.22;;;6.94;100.00
18900;BME280;9582;52.018;6.306;2023-01-30T02:11:44;101374.44;;;6.94;100.00
18900;BME280;9582;52.018;6.306;2023-01-30T02:14:16;101365.69;;;6.98;100.00
18900;BME280;9582;52.018;6.306;2023-01-30T02:16:47;101371.00;;;6.92;100.00
18900;BME280;9582;52.018;6.306;2023-01-30T02:19:23;101367.53;;;6.93;100.00
18900;BME280;9582;52.018;6.306;2023-01-30T02:22:20;101374.50;;;6.91;100.00
18900;BME280;9582;52.018;6.306;2023-01-30T02:25:17;101371.94;;;6.90;100.00
18900;BME280;9582;52.018;6.306;2023-01-30T02:28:31;101375.47;;;6.87;100.00
18900;BME280;9582;52.018;6.306;2023-01-30T02:31:14;101368.59;;;6.85;100.00
18900;BME280;9582;52.018;6.306;2023-01-30T02:33:59;101359.97;;;6.83;100.00
18900;BME280;9582;52.018;6.306;2023-01-30T02:36:40;101365.25;;;6.78;100.00
18900;BME280;9582;52.018;6.306;2023-01-30T02:39:20;101372.03;;;6.85;100.00
18900;BME280;9582;52.018;6.306;2023-01-30T02:41:58;101359.03;;;6.85;100.00
18900;BME280;9582;52.018;6.306;2023-01-30T02:44:36;101360.84;;;6.80;100.00
18900;BME280;9582;52.018;6.306;2023-01-30T02:47:22;101341.78;;;6.81;100.00
18900;BME280;9582;52.018;6.306;2023-01-30T02:49:57;101348.72;;;6.82;100.00
18900;BME280;9582;52.018;6.306;2023-01-30T02:52:30;101340.97;;;6.79;100.00
18900;BME280;9582;52.018;6.306;2023-01-30T02:54:57;101342.78;;;6.76;100.00
18900;BME280;9582;52.018;6.306;2023-01-30T02:57:29;101336.75;;;6.74;100.00
18900;BME280;9582;52.018;6.306;2023-01-30T03:00:02;101312.38;;;6.79;100.00
18900;BME280;9582;52.018;6.306;2023-01-30T03:02:51;101320.13;;;6.82;100.00
18900;BME280;9582;52.018;6.306;2023-01-30T03:05:50;101339.94;;;6.86;100.00
18900;BME280;9582;52.018;6.306;2023-01-30T03:08:40;101321.69;;;6.89;100.00
18900;BME280;9582;52.018;6.306;2023-01-30T03:11:11;101325.16;;;6.90;100.00
18900;BME280;9582;52.018;6.306;2023-01-30T03:13:46;101329.53;;;6.86;100.00
18900;BME280;9582;52.018;6.306;2023-01-30T03:16:18;101321.81;;;6.83;100.00
18900;BME280;9582;52.018;6.306;2023-01-30T03:18:48;101331.28;;;6.86;100.00
18900;BME280;9582;52.018;6.306;2023-01-30T03:21:18;101327.91;;;6.82;100.00
18900;BME280;9582;52.018;6.306;2023-01-30T03:23:45;101318.41;;;6.81;100.00
18900;BME280;9582;52.018;6.306;2023-01-30T03:26:17;101315.78;;;6.83;100.00
18900;BME280;9582;52.018;6.306;2023-01-30T03:28:50;101312.25;;;6.85;100.00
18900;BME280;9582;52.018;6.306;2023-01-30T03:31:20;101311.41;;;6.85;100.00
18900;BME280;9582;52.018;6.306;2023-01-30T03:33:50;101310.53;;;6.84;100.00
18900;BME280;9582;52.018;6.306;2023-01-30T03:36:30;101309.66;;;6.84;100.00
18900;BME280;9582;52.018;6.306;2023-01-30T03:39:03;101305.28;;;6.86;100.00
18900;BME280;9582;52.018;6.306;2023-01-30T03:41:34;101296.66;;;6.85;100.00
18900;BME280;9582;52.018;6.306;2023-01-30T03:44:10;101300.09;;;6.86;100.00
18900;BME280;9582;52.018;6.306;2023-01-30T03:46:43;101302.59;;;6.90;100.00
18900;BME280;9582;52.018;6.306;2023-01-30T03:49:13;101306.00;;;6.94;100.00
18900;BME280;9582;52.018;6.306;2023-01-30T03:51:44;101305.94;;;6.95;100.00
18900;BME280;9582;52.018;6.306;2023-01-30T03:54:16;101307.53;;;7.03;100.00
18900;BME280;9582;52.018;6.306;2023-01-30T03:56:46;101312.66;;;7.06;100.00
18900;BME280;9582;52.018;6.306;2023-01-30T03:59:20;101307.38;;;7.09;100.00
18900;BME280;9582;52.018;6.306;2023-01-30T04:01:56;101312.44;;;7.16;100.00
18900;BME280;9582;52.018;6.306;2023-01-30T04:04:25;101314.97;;;7.18;100.00
18900;BME280;9582;52.018;6.306;2023-01-30T04:06:55;101307.91;;;7.23;100.00
18900;BME280;9582;52.018;6.306;2023-01-30T04:09:22;101307.03;;;7.25;100.00
18900;BME280;9582;52.018;6.306;2023-01-30T04:11:53;101307.91;;;7.23;100.00
18900;BME280;9582;52.018;6.306;2023-01-30T04:14:20;101317.38;;;7.27;100.00
18900;BME280;9582;52.018;6.306;2023-01-30T04:17:05;101318.97;;;7.32;100.00
18900;BME280;9582;52.018;6.306;2023-01-30T04:19:54;101318.13;;;7.32;100.00
18900;BME280;9582;52.018;6.306;2023-01-30T04:22:25;101317.25;;;7.31;100.00
18900;BME280;9582;52.018;6.306;2023-01-30T04:24:53;101310.31;;;7.32;100.00
18900;BME280;9582;52.018;6.306;2023-01-30T04:27:22;101310.44;;;7.26;100.00
18900;BME280;9582;52.018;6.306;2023-01-30T04:30:10;101310.25;;;7.35;100.00
18900;BME280;9582;52.018;6.306;2023-01-30T04:32:41;101318.84;;;7.37;100.00
18900;BME280;9582;52.018;6.306;2023-01-30T04:35:11;101310.09;;;7.41;100.00
18900;BME280;9582;52.018;6.306;2023-01-30T04:37:41;101312.75;;;7.39;100.00
18900;BME280;9582;52.018;6.306;2023-01-30T04:40:16;101311.06;;;7.37;100.00
18900;BME280;9582;52.018;6.306;2023-01-30T04:42:46;101301.50;;;7.37;100.00
18900;BME280;9582;52.018;6.306;2023-01-30T04:45:41;101298.88;;;7.39;100.00
18900;BME280;9582;52.018;6.306;2023-01-30T04:48:08;101304.84;;;7.42;100.00
18900;BME280;9582;52.018;6.306;2023-01-30T04:50:41;101296.91;;;7.48;100.00
18900;BME280;9582;52.018;6.306;2023-01-30T04:53:13;101305.50;;;7.52;100.00
18900;BME280;9582;52.018;6.306;2023-01-30T04:55:43;101302.81;;;7.55;100.00
18900;BME280;9582;52.018;6.306;2023-01-30T04:58:09;101304.63;;;7.51;100.00
18900;BME280;9582;52.018;6.306;2023-01-30T05:00:38;101292.41;;;7.55;100.00
18900;BME280;9582;52.018;6.306;2023-01-30T05:03:10;101299.34;;;7.56;100.00
18900;BME280;9582;52.018;6.306;2023-01-30T05:05:45;101293.13;;;7.62;100.00
18900;BME280;9582;52.018;6.306;2023-01-30T05:08:14;101294.94;;;7.58;100.00
18900;BME280;9582;52.018;6.306;2023-01-30T05:10:48;101293.19;;;7.59;100.00
18900;BME280;9582;52.018;6.306;2023-01-30T05:13:19;101294.97;;;7.56;100.00
18900;BME280;9582;52.018;6.306;2023-01-30T05:15:48;101301.81;;;7.61;100.00
18900;BME280;9582;52.018;6.306;2023-01-30T05:18:17;101303.47;;;7.63;100.00
18900;BME280;9582;52.018;6.306;2023-01-30T05:20:50;101299.13;;;7.64;100.00
18900;BME280;9582;52.018;6.306;2023-01-30T05:23:23;101299.94;;;7.66;100.00
18900;BME280;9582;52.018;6.306;2023-01-30T05:25:58;101293.88;;;7.65;100.00
18900;BME280;9582;52.018;6.306;2023-01-30T05:28:27;101290.38;;;7.66;100.00
18900;BME280;9582;52.018;6.306;2023-01-30T05:31:00;101285.09;;;7.69;100.00
18900;BME280;9582;52.018;6.306;2023-01-30T05:33:26;101286.78;;;7.72;100.00
18900;BME280;9582;52.018;6.306;2023-01-30T05:35:55;101289.34;;;7.73;100.00
18900;BME280;9582;52.018;6.306;2023-01-30T05:38:22;101281.44;;;7.76;100.00
18900;BME280;9582;52.018;6.306;2023-01-30T05:40:59;101278.88;;;7.75;100.00
18900;BME280;9582;52.018;6.306;2023-01-30T05:43:33;101283.22;;;7.76;100.00
18900;BME280;9582;52.018;6.306;2023-01-30T05:46:03;101285.63;;;7.82;100.00
18900;BME280;9582;52.018;6.306;2023-01-30T05:48:36;101287.31;;;7.84;100.00
18900;BME280;9582;52.018;6.306;2023-01-30T05:51:15;101282.03;;;7.87;100.00
18900;BME280;9582;52.018;6.306;2023-01-30T05:53:51;101281.03;;;7.93;100.00
18900;BME280;9582;52.018;6.306;2023-01-30T05:56:21;101281.84;;;7.93;100.00
18900;BME280;9582;52.018;6.306;2023-01-30T05:58:53;101281.78;;;7.96;100.00
18900;BME280;9582;52.018;6.306;2023-01-30T06:01:25;101280.03;;;7.97;100.00
18900;BME280;9582;52.018;6.306;2023-01-30T06:03:58;101285.16;;;8.00;100.00
18900;BME280;9582;52.018;6.306;2023-01-30T06:06:30;101286.03;;;7.99;100.00
18900;BME280;9582;52.018;6.306;2023-01-30T06:08:56;101277.22;;;8.04;100.00
18900;BME280;9582;52.018;6.306;2023-01-30T06:11:23;101279.94;;;8.01;100.00
18900;BME280;9582;52.018;6.306;2023-01-30T06:13:50;101291.25;;;7.99;100.00
18900;BME280;9582;52.018;6.306;2023-01-30T06:16:20;101302.53;;;7.99;100.00
18900;BME280;9582;52.018;6.306;2023-01-30T06:18:50;101310.50;;;7.93;100.00
18900;BME280;9582;52.018;6.306;2023-01-30T06:21:24;101323.50;;;7.93;100.00
18900;BME280;9582;52.018;6.306;2023-01-30T06:24:05;101325.53;;;7.84;100.00
18900;BME280;9582;52.018;6.306;2023-01-30T06:26:38;101328.19;;;7.81;100.00
18900;BME280;9582;52.018;6.306;2023-01-30T06:29:04;101335.22;;;7.77;100.00
18900;BME280;9582;52.018;6.306;2023-01-30T06:31:33;101328.19;;;7.81;100.00
18900;BME280;9582;52.018;6.306;2023-01-30T06:34:05;101335.34;;;7.73;100.00
18900;BME280;9582;52.018;6.306;2023-01-30T06:36:31;101342.09;;;7.80;100.00
18900;BME280;9582;52.018;6.306;2023-01-30T06:38:58;101344.69;;;7.81;100.00
18900;BME280;9582;52.018;6.306;2023-01-30T06:41:30;101357.69;;;7.81;100.00
18900;BME280;9582;52.018;6.306;2023-01-30T06:44:03;101346.63;;;7.73;100.00
18900;BME280;9582;52.018;6.306;2023-01-30T06:46:40;101355.25;;;7.75;100.00
18900;BME280;9582;52.018;6.306;2023-01-30T06:49:08;101347.53;;;7.71;100.00
18900;BME280;9582;52.018;6.306;2023-01-30T06:51:38;101348.38;;;7.73;100.00
18900;BME280;9582;52.018;6.306;2023-01-30T06:54:12;101347.56;;;7.69;100.00
18900;BME280;9582;52.018;6.306;2023-01-30T06:56:46;101345.09;;;7.65;100.00
18900;BME280;9582;52.018;6.306;2023-01-30T06:59:15;101350.47;;;7.57;100.00
18900;BME280;9582;52.018;6.306;2023-01-30T07:01:50;101357.50;;;7.53;100.00
18900;BME280;9582;52.018;6.306;2023-01-30T07:04:17;101358.47;;;7.49;100.00
18900;BME280;9582;52.018;6.306;2023-01-30T07:06:43;101363.81;;;7.43;100.00
18900;BME280;9582;52.018;6.306;2023-01-30T07:09:14;101361.72;;;7.21;100.00
18900;BME280;9582;52.018;6.306;2023-01-30T07:11:41;101360.00;;;7.20;100.00
18900;BME280;9582;52.018;6.306;2023-01-30T07:14:16;101386.88;;;7.20;100.00
18900;BME280;9582;52.018;6.306;2023-01-30T07:16:44;101381.75;;;7.17;100.00
18900;BME280;9582;52.018;6.306;2023-01-30T07:19:18;101380.81;;;7.20;100.00
18900;BME280;9582;52.018;6.306;2023-01-30T07:21:46;101384.50;;;7.10;100.00
18900;BME280;9582;52.018;6.306;2023-01-30T07:24:15;101380.97;;;7.14;100.00
18900;BME280;9582;52.018;6.306;2023-01-30T07:26:44;101377.75;;;7.03;100.00
18900;BME280;9582;52.018;6.306;2023-01-30T07:29:12;101367.59;;;6.89;100.00
18900;BME280;9582;52.018;6.306;2023-01-30T07:31:44;101369.38;;;6.88;100.00
18900;BME280;9582;52.018;6.306;2023-01-30T07:34:12;101372.78;;;6.90;100.00
18900;BME280;9582;52.018;6.306;2023-01-30T07:36:41;101371.00;;;6.92;100.00
18900;BME280;9582;52.018;6.306;2023-01-30T07:39:08;101385.16;;;6.79;100.00
18900;BME280;9582;52.018;6.306;2023-01-30T07:41:34;101393.66;;;6.87;100.00
18900;BME280;9582;52.018;6.306;2023-01-30T07:44:05;101383.22;;;6.89;100.00
18900;BME280;9582;52.018;6.306;2023-01-30T07:46:34;101388.63;;;6.78;100.00
18900;BME280;9582;52.018;6.306;2023-01-30T07:49:04;101383.22;;;6.89;100.00
18900;BME280;9582;52.018;6.306;2023-01-30T07:51:38;101381.34;;;6.95;100.00
18900;BME280;9582;52.018;6.306;2023-01-30T07:54:08;101369.28;;;6.91;100.00
18900;BME280;9582;52.018;6.306;2023-01-30T07:56:42;101377.19;;;6.88;100.00
18900;BME280;9582;52.018;6.306;2023-01-30T07:59:12;101377.38;;;6.79;100.00
18900;BME280;9582;52.018;6.306;2023-01-30T08:01:43;101389.44;;;6.80;100.00
18900;BME280;9582;52.018;6.306;2023-01-30T08:04:17;101383.31;;;6.84;100.00
18900;BME280;9582;52.018;6.306;2023-01-30T08:06:50;101402.59;;;6.74;100.00
18900;BME280;9582;52.018;6.306;2023-01-30T08:09:17;101398.09;;;6.81;100.00
18900;BME280;9582;52.018;6.306;2023-01-30T08:11:52;101392.09;;;6.77;100.00
18900;BME280;9582;52.018;6.306;2023-01-30T08:14:21;101410.56;;;6.65;100.00
18900;BME280;9582;52.018;6.306;2023-01-30T08:16:52;101407.09;;;6.65;100.00
18900;BME280;9582;52.018;6.306;2023-01-30T08:19:27;101399.41;;;6.60;100.00
18900;BME280;9582;52.018;6.306;2023-01-30T08:22:02;101421.81;;;6.64;100.00
18900;BME280;9582;52.018;6.306;2023-01-30T08:24:31;101418.25;;;6.70;100.00
18900;BME280;9582;52.018;6.306;2023-01-30T08:27:03;101413.97;;;6.69;100.00
18900;BME280;9582;52.018;6.306;2023-01-30T08:29:42;101423.28;;;6.77;100.00
18900;BME280;9582;52.018;6.306;2023-01-30T08:32:11;101421.53;;;6.79;100.00
18900;BME280;9582;52.018;6.306;2023-01-30T08:34:48;101412.88;;;6.79;100.00
18900;BME280;9582;52.018;6.306;2023-01-30T08:37:16;101406.00;;;6.76;100.00
18900;BME280;9582;52.018;6.306;2023-01-30T08:39:43;101405.84;;;6.84;100.00
18900;BME280;9582;52.018;6.306;2023-01-30T08:42:12;101408.31;;;6.90;100.00
18900;BME280;9582;52.018;6.306;2023-01-30T08:44:41;101414.38;;;6.90;100.00
18900;BME280;9582;52.018;6.306;2023-01-30T08:47:10;101413.28;;;7.02;100.00
18900;BME280;9582;52.018;6.306;2023-01-30T08:49:40;101425.44;;;7.00;100.00
18900;BME280;9582;52.018;6.306;2023-01-30T08:52:11;101439.25;;;7.04;100.00
18900;BME280;9582;52.018;6.306;2023-01-30T08:54:44;101438.31;;;7.06;100.00
18900;BME280;9582;52.018;6.306;2023-01-30T08:57:14;101454.63;;;7.14;100.00
18900;BME280;9582;52.018;6.306;2023-01-30T08:59:40;101464.75;;;7.28;100.00
18900;BME280;9582;52.018;6.306;2023-01-30T09:02:09;101468.13;;;7.31;100.00
18900;BME280;9582;52.018;6.306;2023-01-30T09:04:44;101473.94;;;7.44;100.00
18900;BME280;9582;52.018;6.306;2023-01-30T09:07:14;101462.44;;;7.54;100.00
18900;BME280;9582;52.018;6.306;2023-01-30T09:09:43;101472.81;;;7.55;100.00
18900;BME280;9582;52.018;6.306;2023-01-30T09:12:09;101471.91;;;7.56;100.00
18900;BME280;9582;52.018;6.306;2023-01-30T09:14:37;101458.84;;;7.60;100.00
18900;BME280;9582;52.018;6.306;2023-01-30T09:17:04;101458.81;;;7.61;100.00
18900;BME280;9582;52.018;6.306;2023-01-30T09:19:34;101453.69;;;7.56;100.00
18900;BME280;9582;52.018;6.306;2023-01-30T09:22:06;101444.09;;;7.60;100.00
18900;BME280;9582;52.018;6.306;2023-01-30T09:24:37;101452.63;;;7.65;100.00
18900;BME280;9582;52.018;6.306;2023-01-30T09:27:11;101444.09;;;7.60;100.00
18900;BME280;9582;52.018;6.306;2023-01-30T09:29:49;101456.09;;;7.67;100.00
18900;BME280;9582;52.018;6.306;2023-01-30T09:32:18;101454.22;;;7.72;100.00
18900;BME280;9582;52.018;6.306;2023-01-30T09:34:47;101445.34;;;7.81;100.00
18900;BME280;9582;52.018;6.306;2023-01-30T09:37:16;101452.44;;;7.74;100.00
18900;BME280;9582;52.018;6.306;2023-01-30T09:39:47;101458.22;;;7.87;100.00
18900;BME280;9582;52.018;6.306;2023-01-30T09:42:34;101447.88;;;7.84;100.00
18900;BME280;9582;52.018;6.306;2023-01-30T09:45:25;101459.13;;;7.86;100.00
18900;BME280;9582;52.018;6.306;2023-01-30T09:48:02;101459.09;;;7.87;100.00
18900;BME280;9582;52.018;6.306;2023-01-30T09:50:50;101472.94;;;7.88;100.00
18900;BME280;9582;52.018;6.306;2023-01-30T09:53:40;101468.59;;;7.88;100.00
18900;BME280;9582;52.018;6.306;2023-01-30T09:56:12;101460.78;;;7.88;100.00
18900;BME280;9582;52.018;6.306;2023-01-30T09:58:43;101462.50;;;7.89;100.00
18900;BME280;9582;52.018;6.306;2023-01-30T10:01:23;101472.00;;;7.92;100.00
18900;BME280;9582;52.018;6.306;2023-01-30T10:04:10;101471.00;;;7.96;100.00
18900;BME280;9582;52.018;6.306;2023-01-30T10:06:50;101478.06;;;7.92;100.00
18900;BME280;9582;52.018;6.306;2023-01-30T10:09:32;101470.03;;;8.01;100.00
18900;BME280;9582;52.018;6.306;2023-01-30T10:12:15;101480.34;;;8.06;100.00
18900;BME280;9582;52.018;6.306;2023-01-30T10:15:01;101491.34;;;8.17;100.00
18900;BME280;9582;52.018;6.306;2023-01-30T10:17:44;101495.56;;;8.23;100.00
18900;BME280;9582;52.018;6.306;2023-01-30T10:20:29;101496.41;;;8.23;100.00
18900;BME280;9582;52.018;6.306;2023-01-30T10:23:23;101484.47;;;8.14;100.00
18900;BME280;9582;52.018;6.306;2023-01-30T10:26:08;101489.59;;;8.18;100.00
18900;BME280;9582;52.018;6.306;2023-01-30T10:28:48;101481.88;;;8.14;100.00
18900;BME280;9582;52.018;6.306;2023-01-30T10:31:29;101491.47;;;8.12;100.00
18900;BME280;9582;52.018;6.306;2023-01-30T10:34:03;101487.06;;;8.14;100.00
18900;BME280;9582;52.018;6.306;2023-01-30T10:36:42;101495.81;;;8.12;100.00
18900;BME280;9582;52.018;6.306;2023-01-30T10:39:33;101504.38;;;8.17;100.00
18900;BME280;9582;52.018;6.306;2023-01-30T10:42:09;101506.97;;;8.17;100.00
18900;BME280;9582;52.018;6.306;2023-01-30T10:44:46;101495.69;;;8.18;100.00
18900;BME280;9582;52.018;6.306;2023-01-30T10:47:23;101504.31;;;8.19;100.00
18900;BME280;9582;52.018;6.306;2023-01-30T10:50:04;101498.16;;;8.23;100.00
18900;BME280;9582;52.018;6.306;2023-01-30T10:52:46;101483.31;;;8.26;100.00
18900;BME280;9582;52.018;6.306;2023-01-30T10:55:26;101492.69;;;8.35;100.00
18900;BME280;9582;52.018;6.306;2023-01-30T10:58:08;101491.13;;;8.28;100.00
18900;BME280;9582;52.018;6.306;2023-01-30T11:00:49;101498.78;;;8.34;100.00
18900;BME280;9582;52.018;6.306;2023-01-30T11:03:29;101491.91;;;8.31;100.00
18900;BME280;9582;52.018;6.306;2023-01-30T11:06:09;101502.25;;;8.34;100.00
18900;BME280;9582;52.018;6.306;2023-01-30T11:08:37;101498.84;;;8.31;100.00
18900;BME280;9582;52.018;6.306;2023-01-30T11:11:25;101497.69;;;8.44;100.00
18900;BME280;9582;52.018;6.306;2023-01-30T11:14:06;101504.66;;;8.42;100.00
18900;BME280;9582;52.018;6.306;2023-01-30T11:16:40;101509.00;;;8.43;100.00
18900;BME280;9582;52.018;6.306;2023-01-30T11:19:11;101507.13;;;8.48;100.00
18900;BME280;9582;52.018;6.306;2023-01-30T11:21:49;101521.78;;;8.52;100.00
18900;BME280;9582;52.018;6.306;2023-01-30T11:24:23;101528.69;;;8.54;100.00
18900;BME280;9582;52.018;6.306;2023-01-30T11:26:56;101525.28;;;8.51;100.00
18900;BME280;9582;52.018;6.306;2023-01-30T11:29:38;101517.53;;;8.49;100.00
18900;BME280;9582;52.018;6.306;2023-01-30T11:32:14;101520.88;;;8.53;100.00
18900;BME280;9582;52.018;6.306;2023-01-30T11:35:01;101515.59;;;8.56;100.00
18900;BME280;9582;52.018;6.306;2023-01-30T11:37:32;101515.22;;;8.69;100.00
18900;BME280;9582;52.018;6.306;2023-01-30T11:40:09;101512.28;;;8.83;100.00
18900;BME280;9582;52.018;6.306;2023-01-30T11:42:43;101513.75;;;8.93;100.00
18900;BME280;9582;52.018;6.306;2023-01-30T11:45:22;101505.06;;;8.93;100.00
18900;BME280;9582;52.018;6.306;2023-01-30T11:47:53;101506.78;;;8.94;100.00
18900;BME280;9582;52.018;6.306;2023-01-30T11:50:30;101508.59;;;8.92;100.00
18900;BME280;9582;52.018;6.306;2023-01-30T11:53:02;101517.22;;;8.92;100.00
18900;BME280;9582;52.018;6.306;2023-01-30T11:55:36;101516.13;;;9.01;100.00
18900;BME280;9582;52.018;6.306;2023-01-30T11:58:07;101516.13;;;9.01;100.00
18900;BME280;9582;52.018;6.306;2023-01-30T12:00:41;101518.81;;;8.99;100.00
18900;BME280;9582;52.018;6.306;2023-01-30T12:03:11;101508.38;;;8.99;100.00
18900;BME280;9582;52.018;6.306;2023-01-30T12:05:47;101534.22;;;9.08;100.00
18900;BME280;9582;52.018;6.306;2023-01-30T12:08:22;101534.53;;;8.96;100.00
18900;BME280;9582;52.018;6.306;2023-01-30T12:10:53;101527.88;;;8.86;100.00
18900;BME280;9582;52.018;6.306;2023-01-30T12:13:24;101526.28;;;8.79;100.00
18900;BME280;9582;52.018;6.306;2023-01-30T12:16:09;101523.75;;;8.78;100.00
18900;BME280;9582;52.018;6.306;2023-01-30T12:18:43;101523.63;;;8.81;100.00
18900;BME280;9582;52.018;6.306;2023-01-30T12:21:38;101519.28;;;8.81;100.00
18900;BME280;9582;52.018;6.306;2023-01-30T12:24:21;101534.63;;;8.93;100.00
18900;BME280;9582;52.018;6.306;2023-01-30T12:26:57;101532.25;;;8.84;100.00
18900;BME280;9582;52.018;6.306;2023-01-30T12:29:35;101534.84;;;8.84;100.00
18900;BME280;9582;52.018;6.306;2023-01-30T12:32:12;101538.28;;;8.86;100.00
18900;BME280;9582;52.018;6.306;2023-01-30T12:34:40;101547.00;;;8.85;100.00
18900;BME280;9582;52.018;6.306;2023-01-30T12:37:22;101557.22;;;8.93;100.00
18900;BME280;9582;52.018;6.306;2023-01-30T12:40:01;101542.66;;;8.84;100.00
18900;BME280;9582;52.018;6.306;2023-01-30T12:43:01;101555.56;;;8.90;100.00
18900;BME280;9582;52.018;6.306;2023-01-30T12:45:42;101568.66;;;8.89;100.00
18900;BME280;9582;52.018;6.306;2023-01-30T12:48:35;101549.56;;;8.87;100.00
18900;BME280;9582;52.018;6.306;2023-01-30T12:51:17;101556.19;;;9.00;100.00
18900;BME280;9582;52.018;6.306;2023-01-30T12:53:58;101558.31;;;8.84;100.00
18900;BME280;9582;52.018;6.306;2023-01-30T12:56:51;101539.25;;;8.82;100.00
18900;BME280;9582;52.018;6.306;2023-01-30T12:59:37;101558.38;;;8.83;100.00
18900;BME280;9582;52.018;6.306;2023-01-30T13:02:41;101560.41;;;8.70;100.00
18900;BME280;9582;52.018;6.306;2023-01-30T13:05:24;101576.13;;;8.67;100.00
18900;BME280;9582;52.018;6.306;2023-01-30T13:08:07;101568.09;;;8.76;100.00
18900;BME280;9582;52.018;6.306;2023-01-30T13:10:43;101564.59;;;8.77;100.00
18900;BME280;9582;52.018;6.306;2023-01-30T13:13:21;101576.72;;;8.78;100.00
18900;BME280;9582;52.018;6.306;2023-01-30T13:15:58;101584.31;;;8.87;100.00
18900;BME280;9582;52.018;6.306;2023-01-30T13:18:31;101581.94;;;8.78;100.00
18900;BME280;9582;52.018;6.306;2023-01-30T13:21:09;101592.44;;;8.75;100.00
18900;BME280;9582;52.018;6.306;2023-01-30T13:23:46;101582.72;;;8.82;100.00
18900;BME280;9582;52.018;6.306;2023-01-30T13:26:20;101596.66;;;8.81;100.00
18900;BME280;9582;52.018;6.306;2023-01-30T13:28:54;101607.06;;;8.81;100.00
18900;BME280;9582;52.018;6.306;2023-01-30T13:31:29;101609.66;;;8.82;100.00
18900;BME280;9582;52.018;6.306;2023-01-30T13:34:09;101607.78;;;8.87;100.00
18900;BME280;9582;52.018;6.306;2023-01-30T13:36:53;101616.28;;;8.95;100.00
18900;BME280;9582;52.018;6.306;2023-01-30T13:39:31;101608.50;;;8.94;100.00